METAR Data
IDs: Format: Raw Decoded Include TAF

Data at: 2143 UTC 08 Aug 2020

KPHT 082135Z AUTO VRB03KT 10SM CLR 32/22 A3010 RMK A01
KPHT 082115Z AUTO 23003KT 10SM CLR 32/22 A3010 RMK A01
KPHT 082055Z AUTO 00000KT 10SM CLR 31/21 A3011 RMK A01
KPHT 082035Z AUTO 00000KT 10SM CLR 31/21 A3011 RMK A01
KPHT 082015Z AUTO 00000KT 10SM CLR 31/21 A3012 RMK A01
KPHT 081955Z AUTO 00000KT 10SM CLR 31/21 A3012 RMK A01
KPHT 081935Z AUTO 00000KT 10SM CLR 31/21 A3014 RMK A01
KPHT 081915Z AUTO VRB03KT 10SM CLR 31/21 A3014 RMK A01
KPHT 081855Z AUTO 00000KT 10SM CLR 31/21 A3015 RMK A01
KPHT 081835Z AUTO 00000KT 10SM CLR 30/21 A3016 RMK A01
KPHT 081815Z AUTO 00000KT 10SM CLR 30/21 A3017 RMK A01
KPHT 081755Z AUTO 00000KT 10SM CLR 30/21 A3017 RMK A01
KPHT 081735Z AUTO 00000KT 10SM CLR 30/21 A3017 RMK A01
KPHT 081715Z AUTO 00000KT 10SM CLR 29/21 A3017 RMK A01
KPHT 081655Z AUTO 00000KT 10SM CLR 29/21 A3018 RMK A01
KPHT 081635Z AUTO 00000KT 10SM CLR 29/21 A3018 RMK A01
KPHT 081615Z AUTO 00000KT 10SM CLR 29/21 A3018 RMK A01
KPHT 081555Z AUTO 00000KT 10SM CLR 28/20 A3018 RMK A01
KPHT 081535Z AUTO 00000KT 10SM CLR 28/21 A3018 RMK A01
KPHT 081515Z AUTO 00000KT 10SM CLR 27/20 A3018 RMK A01
KPHT 081455Z AUTO 00000KT 10SM CLR 27/20 A3018 RMK A01
KPHT 081435Z AUTO 00000KT 10SM CLR 26/20 A3017 RMK A01
KPHT 081415Z AUTO 00000KT 10SM CLR 26/21 A3017 RMK A01
KPHT 081355Z AUTO 12004KT 10SM CLR 25/21 A3017 RMK A01
KPHT 081335Z AUTO 00000KT 10SM CLR 24/20 A3017 RMK A01
KPHT 081315Z AUTO 12004KT 10SM CLR 24/20 A3017 RMK A01
KPHT 081255Z AUTO 10004KT 10SM CLR 23/20 A3016 RMK A01
KPHT 081235Z AUTO 00000KT 10SM CLR 22/20 A3016 RMK A01
KPHT 081215Z AUTO 00000KT 10SM CLR 21/20 A3016 RMK A01
KPHT 081155Z AUTO 00000KT 10SM CLR 19/18 A3015 RMK A01
KPHT 081135Z AUTO 00000KT 9SM CLR 18/18 A3014 RMK A01
KPHT 081115Z AUTO 00000KT 10SM CLR 18/18 A3013 RMK A01
KPHT 081055Z AUTO 00000KT 10SM CLR 19/18 A3013 RMK A01
KPHT 081035Z AUTO 04003KT 10SM CLR 18/18 A3013 RMK A01
KPHT 081015Z AUTO 00000KT 10SM CLR 18/17 A3013 RMK A01
KPHT 080955Z AUTO 00000KT 10SM CLR 18/18 A3013 RMK A01
KPHT 080935Z AUTO 00000KT 10SM CLR 19/18 A3014 RMK A01
KPHT 080915Z AUTO 00000KT 10SM CLR 19/18 A3014 RMK A01
KPHT 080855Z AUTO 00000KT 10SM CLR 19/18 A3014 RMK A01
KPHT 080835Z AUTO 00000KT 10SM CLR 19/19 A3014 RMK A01
KPHT 080815Z AUTO 00000KT 10SM CLR 19/18 A3014 RMK A01
KPHT 080755Z AUTO 03003KT 10SM CLR 19/19 A3014 RMK A01
KPHT 080735Z AUTO 04003KT 10SM CLR 19/19 A3014 RMK A01
KPHT 080715Z AUTO 00000KT 9SM CLR 19/18 A3014 RMK A01
KPHT 080655Z AUTO 00000KT 10SM CLR 19/19 A3014 RMK A01
KPHT 080635Z AUTO 00000KT 10SM CLR 19/18 A3014 RMK A01
KPHT 080615Z AUTO 00000KT 10SM CLR 19/19 A3013 RMK A01
KPHT 080555Z AUTO 00000KT 10SM CLR 20/19 A3013 RMK A01
KPHT 080535Z AUTO 00000KT 10SM CLR 20/19 A3013 RMK A01
KPHT 080515Z AUTO 00000KT 10SM SCT022 21/19 A3013 RMK A01
KPHT 080455Z AUTO 00000KT 10SM SCT023 21/19 A3012 RMK A01
KPHT 080435Z AUTO 00000KT 10SM CLR 21/19 A3012 RMK A01
KPHT 080415Z AUTO 00000KT 10SM CLR 20/19 A3012 RMK A01
KPHT 080355Z AUTO 00000KT 10SM CLR 22/20 A3012 RMK A01
KPHT 080335Z AUTO 00000KT 10SM CLR 21/20 A3012 RMK A01
KPHT 080315Z AUTO 00000KT 10SM CLR 21/20 A3013 RMK A01
KPHT 080255Z AUTO 00000KT 10SM CLR 21/20 A3012 RMK A01
KPHT 080235Z AUTO 00000KT 10SM CLR 21/20 A3012 RMK A01
KPHT 080215Z AUTO 00000KT 10SM CLR 22/21 A3011 RMK A01
KPHT 080155Z AUTO 00000KT 10SM CLR 21/20 A3011 RMK A01
KPHT 080135Z AUTO 00000KT 10SM CLR 22/21 A3010 RMK A01
KPHT 080115Z AUTO 00000KT 10SM CLR 23/21 A3010 RMK A01
KPHT 080055Z AUTO 00000KT 10SM CLR 23/21 A3010 RMK A01
KPHT 080035Z AUTO 00000KT 10SM CLR 24/22 A3010 RMK A01
KPHT 080015Z AUTO 00000KT 10SM CLR 26/22 A3009 RMK A01
KPHT 072355Z AUTO 00000KT 10SM CLR 28/20 A3009 RMK A01
KPHT 072335Z AUTO 06004KT 10SM CLR 28/20 A3009 RMK A01
KPHT 072315Z AUTO 00000KT 10SM CLR 28/20 A3009 RMK A01
KPHT 072255Z AUTO 04005KT 10SM CLR 29/19 A3009 RMK A01
KPHT 072235Z AUTO 00000KT 10SM CLR 29/20 A3010 RMK A01
KPHT 072215Z AUTO VRB03KT 10SM CLR 29/19 A3010 RMK A01
KPHT 072155Z AUTO 35004KT 10SM CLR 29/19 A3010 RMK A01
KPHT 072135Z AUTO 08003KT 10SM CLR 29/18 A3011 RMK A01
KPHT 072115Z AUTO 33003KT 10SM CLR 29/19 A3011 RMK A01
KPHT 072055Z AUTO 01003KT 10SM CLR 29/18 A3011 RMK A01
KPHT 072035Z AUTO 00000KT 10SM CLR 29/18 A3011 RMK A01
KPHT 072015Z AUTO VRB04KT 10SM CLR 29/19 A3011 RMK A01
KPHT 071955Z AUTO 02005KT 10SM CLR 29/19 A3012 RMK A01
KPHT 071935Z AUTO VRB03KT 10SM CLR 29/18 A3011 RMK A01
KPHT 071915Z AUTO 04006KT 10SM CLR 28/19 A3012 RMK A01
KPHT 071855Z AUTO 02005KT 10SM CLR 28/19 A3013 RMK A01
KPHT 071835Z AUTO 11004KT 10SM CLR 28/18 A3013 RMK A01
KPHT 071815Z AUTO 36004KT 10SM FEW034 28/19 A3014 RMK A01
KPHT 071755Z AUTO 00000KT 10SM FEW034 27/19 A3014 RMK A01
KPHT 071735Z AUTO VRB05KT 10SM CLR 27/19 A3014 RMK A01
KPHT 071715Z AUTO VRB05KT 10SM CLR 27/17 A3014 RMK A01
KPHT 071655Z AUTO VRB04KT 10SM CLR 27/18 A3014 RMK A01
KPHT 071635Z AUTO 04006KT 10SM CLR 27/19 A3014 RMK A01
KPHT 071615Z AUTO VRB05KT 10SM CLR 26/19 A3014 RMK A01
KPHT 071555Z AUTO 36005KT 10SM CLR 26/19 A3014 RMK A01
KPHT 071535Z AUTO 36005KT 10SM CLR 26/19 A3014 RMK A01
KPHT 071515Z AUTO 02003KT 10SM CLR 25/19 A3013 RMK A01
KPHT 071455Z AUTO 01005KT 10SM CLR 25/19 A3012 RMK A01
KPHT 071435Z AUTO 03003KT 10SM CLR 24/19 A3012 RMK A01
KPHT 071415Z AUTO 04003KT 10SM CLR 24/19 A3011 RMK A01
KPHT 071355Z AUTO 06004KT 10SM CLR 23/19 A3011 RMK A01
KPHT 071335Z AUTO 05004KT 10SM CLR 22/19 A3012 RMK A01
KPHT 071315Z AUTO 07004KT 10SM CLR 21/18 A3011 RMK A01
KPHT 071255Z AUTO 04005KT 10SM CLR 20/18 A3011 RMK A01
KPHT 071235Z AUTO 03004KT 10SM CLR 19/17 A3011 RMK A01
KPHT 071215Z AUTO 00000KT 10SM CLR 18/17 A3011 RMK A01
KPHT 071155Z AUTO 00000KT 10SM CLR 18/17 A3010 RMK A01
KPHT 071135Z AUTO 00000KT 10SM CLR 17/16 A3009 RMK A01
KPHT 071115Z AUTO 03003KT 10SM CLR 16/16 A3009 RMK A01
KPHT 071055Z AUTO 00000KT 10SM CLR 17/16 A3009 RMK A01
KPHT 071035Z AUTO 00000KT 8SM CLR 16/16 A3009 RMK A01
KPHT 071015Z AUTO 00000KT 8SM CLR 16/15 A3009 RMK A01
KPHT 070955Z AUTO 00000KT 10SM CLR 17/16 A3009 RMK A01